sensor_id;sensor_type;location;lat;lon;timestamp;pressure;altitude;pressure_sealevel;temperature;humidity
8101;BME280;4093;53.470;9.832;2023-09-12T00:00:47;101203.25;;;25.53;79.23
8101;BME280;4093;53.470;9.832;2023-09-12T00:03:18;101207.50;;;25.55;78.31
8101;BME280;4093;53.470;9.832;2023-09-12T00:05:51;101218.19;;;25.78;78.22
8101;BME280;4093;53.470;9.832;2023-09-12T00:08:20;101211.88;;;25.44;79.72
8101;BME280;4093;53.470;9.832;2023-09-12T00:10:58;101220.47;;;25.34;79.48
8101;BME280;4093;53.470;9.832;2023-09-12T00:13:26;101216.91;;;25.59;78.58
8101;BME280;4093;53.470;9.832;2023-09-12T00:15:53;101220.63;;;25.33;79.37
8101;BME280;4093;53.470;9.832;2023-09-12T00:18:21;101232.13;;;25.32;80.05
8101;BME280;4093;53.470;9.832;2023-09-12T00:20:49;101210.28;;;25.41;79.28
8101;BME280;4093;53.470;9.832;2023-09-12T00:23:18;101212.72;;;25.44;79.51
8101;BME280;4093;53.470;9.832;2023-09-12T00:25:47;101205.81;;;25.54;78.48
8101;BME280;4093;53.470;9.832;2023-09-12T00:28:15;101208.84;;;25.37;79.60
8101;BME280;4093;53.470;9.832;2023-09-12T00:30:42;101207.50;;;25.55;79.18
8101;BME280;4093;53.470;9.832;2023-09-12T00:33:10;101198.19;;;25.50;78.53
8101;BME280;4093;53.470;9.832;2023-09-12T00:35:38;101192.44;;;25.56;78.67
8101;BME280;4093;53.470;9.832;2023-09-12T00:38:05;101188.25;;;25.41;78.25
8101;BME280;4093;53.470;9.832;2023-09-12T00:40:33;101197.78;;;25.43;79.59
8101;BME280;4093;53.470;9.832;2023-09-12T00:43:03;101200.69;;;25.64;78.12
8101;BME280;4093;53.470;9.832;2023-09-12T00:45:31;101196.84;;;25.68;78.04
8101;BME280;4093;53.470;9.832;2023-09-12T00:47:59;101183.09;;;25.63;78.50
8101;BME280;4093;53.470;9.832;2023-09-12T00:50:29;101191.94;;;25.75;77.81
8101;BME280;4093;53.470;9.832;2023-09-12T00:52:58;101193.13;;;25.95;77.35
8101;BME280;4093;53.470;9.832;2023-09-12T00:55:28;101181.84;;;25.80;77.75
8101;BME280;4093;53.470;9.832;2023-09-12T00:57:56;101172.19;;;25.79;78.07
8101;BME280;4093;53.470;9.832;2023-09-12T01:00:25;101173.56;;;25.84;77.72
8101;BME280;4093;53.470;9.832;2023-09-12T01:02:53;101171.53;;;25.88;77.34
8101;BME280;4093;53.470;9.832;2023-09-12T01:05:23;101160.94;;;25.88;77.48
8101;BME280;4093;53.470;9.832;2023-09-12T01:07:51;101145.31;;;25.72;77.45
8101;BME280;4093;53.470;9.832;2023-09-12T01:10:19;101137.44;;;25.59;78.38
8101;BME280;4093;53.470;9.832;2023-09-12T01:12:46;101137.84;;;25.42;79.29
8101;BME280;4093;53.470;9.832;2023-09-12T01:15:14;101128.44;;;25.14;80.96
8101;BME280;4093;53.470;9.832;2023-09-12T01:17:45;101144.03;;;25.30;81.05
8101;BME280;4093;53.470;9.832;2023-09-12T01:20:16;101139.59;;;25.54;78.58
8101;BME280;4093;53.470;9.832;2023-09-12T01:22:56;101095.72;;;24.27;84.61
8101;BME280;4093;53.470;9.832;2023-09-12T01:25:58;101112.34;;;24.29;85.54
8101;BME280;4093;53.470;9.832;2023-09-12T01:28:30;101114.44;;;24.11;86.42
8101;BME280;4093;53.470;9.832;2023-09-12T01:31:02;101126.31;;;24.44;85.65
8101;BME280;4093;53.470;9.832;2023-09-12T01:33:30;101127.97;;;24.83;83.82
8101;BME280;4093;53.470;9.832;2023-09-12T01:35:58;101122.97;;;24.91;82.61
8101;BME280;4093;53.470;9.832;2023-09-12T01:38:26;101108.69;;;24.81;83.25
8101;BME280;4093;53.470;9.832;2023-09-12T01:40:56;101115.72;;;25.06;81.64
8101;BME280;4093;53.470;9.832;2023-09-12T01:43:25;101110.25;;;25.33;80.28
8101;BME280;4093;53.470;9.832;2023-09-12T01:45:57;101075.22;;;24.93;81.57
8101;BME280;4093;53.470;9.832;2023-09-12T01:48:30;101103.44;;;25.05;82.04
8101;BME280;4093;53.470;9.832;2023-09-12T01:51:00;101122.41;;;25.36;80.52
8101;BME280;4093;53.470;9.832;2023-09-12T01:53:29;101135.38;;;25.52;79.58
8101;BME280;4093;53.470;9.832;2023-09-12T01:55:57;101139.38;;;25.57;78.82
8101;BME280;4093;53.470;9.832;2023-09-12T01:58:25;101138.78;;;25.41;79.88
8101;BME280;4093;53.470;9.832;2023-09-12T02:00:53;101161.69;;;25.42;80.13
8101;BME280;4093;53.470;9.832;2023-09-12T02:03:23;101161.63;;;25.31;80.74
8101;BME280;4093;53.470;9.832;2023-09-12T02:05:51;101185.25;;;25.58;79.09
8101;BME280;4093;53.470;9.832;2023-09-12T02:08:18;101166.06;;;25.30;79.63
8101;BME280;4093;53.470;9.832;2023-09-12T02:10:46;101163.75;;;25.26;80.53
8101;BME280;4093;53.470;9.832;2023-09-12T02:13:14;101180.06;;;25.32;80.76
8101;BME280;4093;53.470;9.832;2023-09-12T02:15:41;101186.50;;;25.28;79.76
8101;BME280;4093;53.470;9.832;2023-09-12T02:18:09;101190.88;;;25.29;80.46
8101;BME280;4093;53.470;9.832;2023-09-12T02:24:21;101187.69;;;25.24;80.39
8101;BME280;4093;53.470;9.832;2023-09-12T02:26:49;101201.28;;;25.20;80.80
8101;BME280;4093;53.470;9.832;2023-09-12T02:29:17;101194.66;;;25.25;80.56
8101;BME280;4093;53.470;9.832;2023-09-12T02:31:44;101184.91;;;25.26;80.96
8101;BME280;4093;53.470;9.832;2023-09-12T02:34:12;101190.91;;;25.17;80.99
8101;BME280;4093;53.470;9.832;2023-09-12T02:36:40;101193.16;;;25.34;80.98
8101;BME280;4093;53.470;9.832;2023-09-12T02:39:07;101199.97;;;25.25;81.31
8101;BME280;4093;53.470;9.832;2023-09-12T02:41:36;101198.63;;;25.20;80.98
8101;BME280;4093;53.470;9.832;2023-09-12T02:44:04;101210.81;;;24.97;81.82
8101;BME280;4093;53.470;9.832;2023-09-12T02:46:32;101220.53;;;24.96;82.38
8101;BME280;4093;53.470;9.832;2023-09-12T02:49:00;101207.66;;;24.53;84.62
8101;BME280;4093;53.470;9.832;2023-09-12T02:51:28;101216.53;;;24.78;83.02
8101;BME280;4093;53.470;9.832;2023-09-12T02:53:57;101209.78;;;24.74;83.87
8101;BME280;4093;53.470;9.832;2023-09-12T02:56:24;101229.88;;;24.89;82.94
8101;BME280;4093;53.470;9.832;2023-09-12T02:58:53;101220.22;;;24.88;82.99
8101;BME280;4093;53.470;9.832;2023-09-12T03:01:21;101219.50;;;24.86;83.22
8101;BME280;4093;53.470;9.832;2023-09-12T03:03:49;101224.38;;;24.79;82.71
8101;BME280;4093;53.470;9.832;2023-09-12T03:06:17;101228.81;;;24.91;82.42
8101;BME280;4093;53.470;9.832;2023-09-12T03:08:45;101223.28;;;25.07;81.75
8101;BME280;4093;53.470;9.832;2023-09-12T03:11:13;101229.22;;;24.98;81.75
8101;BME280;4093;53.470;9.832;2023-09-12T03:13:41;101222.44;;;24.94;82.37
8101;BME280;4093;53.470;9.832;2023-09-12T03:16:11;101211.63;;;24.97;82.29
8101;BME280;4093;53.470;9.832;2023-09-12T03:18:39;101197.59;;;24.58;84.00
8101;BME280;4093;53.470;9.832;2023-09-12T03:21:07;101221.06;;;24.76;83.91
8101;BME280;4093;53.470;9.832;2023-09-12T03:23:35;101215.69;;;24.90;82.71
8101;BME280;4093;53.470;9.832;2023-09-12T03:26:03;101227.66;;;24.83;83.41
8101;BME280;4093;53.470;9.832;2023-09-12T03:28:31;101217.78;;;24.85;83.65
8101;BME280;4093;53.470;9.832;2023-09-12T03:31:06;101220.66;;;24.82;83.06
8101;BME280;4093;53.470;9.832;2023-09-12T03:33:36;101215.28;;;24.58;84.22
8101;BME280;4093;53.470;9.832;2023-09-12T03:36:04;101227.34;;;24.62;84.54
8101;BME280;4093;53.470;9.832;2023-09-12T03:38:32;101212.31;;;24.62;83.57
8101;BME280;4093;53.470;9.832;2023-09-12T03:41:00;101222.88;;;24.62;84.43
8101;BME280;4093;53.470;9.832;2023-09-12T03:43:28;101221.41;;;24.84;83.29
8101;BME280;4093;53.470;9.832;2023-09-12T03:45:56;101221.63;;;24.68;84.08
8101;BME280;4093;53.470;9.832;2023-09-12T03:48:24;101185.19;;;24.33;84.39
8101;BME280;4093;53.470;9.832;2023-09-12T03:50:53;101203.91;;;24.30;86.41
8101;BME280;4093;53.470;9.832;2023-09-12T03:53:21;101223.50;;;24.53;84.03
8101;BME280;4093;53.470;9.832;2023-09-12T03:55:49;101187.22;;;23.90;88.10
8101;BME280;4093;53.470;9.832;2023-09-12T03:58:17;101186.66;;;23.30;92.49
8101;BME280;4093;53.470;9.832;2023-09-12T04:00:44;101215.13;;;23.94;89.33
8101;BME280;4093;53.470;9.832;2023-09-12T04:03:12;101202.31;;;23.88;88.57
8101;BME280;4093;53.470;9.832;2023-09-12T04:05:42;101228.50;;;24.45;86.63
8101;BME280;4093;53.470;9.832;2023-09-12T04:08:11;101205.06;;;24.26;86.70
8101;BME280;4093;53.470;9.832;2023-09-12T04:10:39;101204.16;;;24.00;88.55
8101;BME280;4093;53.470;9.832;2023-09-12T04:13:07;101209.78;;;24.48;86.79
8101;BME280;4093;53.470;9.832;2023-09-12T04:15:34;101207.84;;;24.63;85.95
8101;BME280;4093;53.470;9.832;2023-09-12T04:18:03;101196.34;;;24.64;85.03
8101;BME280;4093;53.470;9.832;2023-09-12T04:20:31;101201.28;;;24.81;84.44
8101;BME280;4093;53.470;9.832;2023-09-12T04:23:00;101191.34;;;24.85;83.49
8101;BME280;4093;53.470;9.832;2023-09-12T04:25:30;101183.59;;;24.82;83.64
8101;BME280;4093;53.470;9.832;2023-09-12T04:27:57;101180.34;;;24.78;84.03
8101;BME280;4093;53.470;9.832;2023-09-12T04:30:25;101179.06;;;24.84;84.04
8101;BME280;4093;53.470;9.832;2023-09-12T04:32:53;101178.44;;;24.80;83.74
8101;BME280;4093;53.470;9.832;2023-09-12T04:35:21;101181.19;;;24.79;83.85
8101;BME280;4093;53.470;9.832;2023-09-12T04:37:49;101191.53;;;24.82;84.37
8101;BME280;4093;53.470;9.832;2023-09-12T04:40:16;101185.44;;;24.68;84.49
8101;BME280;4093;53.470;9.832;2023-09-12T04:42:45;101189.03;;;24.67;84.24
8101;BME280;4093;53.470;9.832;2023-09-12T04:45:13;101189.66;;;24.71;83.48
8101;BME280;4093;53.470;9.832;2023-09-12T04:47:41;101147.13;;;23.70;89.63
8101;BME280;4093;53.470;9.832;2023-09-12T04:50:09;101182.19;;;24.12;88.17
8101;BME280;4093;53.470;9.832;2023-09-12T04:52:38;101196.03;;;24.43;86.41
8101;BME280;4093;53.470;9.832;2023-09-12T04:55:06;101178.47;;;24.42;84.60
8101;BME280;4093;53.470;9.832;2023-09-12T04:57:34;101167.47;;;24.48;85.61
8101;BME280;4093;53.470;9.832;2023-09-12T05:00:04;101174.00;;;24.68;84.56
8101;BME280;4093;53.470;9.832;2023-09-12T05:02:32;101168.91;;;24.78;83.45
8101;BME280;4093;53.470;9.832;2023-09-12T05:05:00;101180.34;;;24.78;83.67
8101;BME280;4093;53.470;9.832;2023-09-12T05:07:28;101173.59;;;24.61;84.45
8101;BME280;4093;53.470;9.832;2023-09-12T05:09:55;101191.06;;;24.64;85.03
8101;BME280;4093;53.470;9.832;2023-09-12T05:12:23;101192.44;;;24.69;84.07
8101;BME280;4093;53.470;9.832;2023-09-12T05:14:51;101187.44;;;24.52;85.11
8101;BME280;4093;53.470;9.832;2023-09-12T05:17:20;101187.78;;;24.48;85.41
8101;BME280;4093;53.470;9.832;2023-09-12T05:19:47;101201.50;;;24.65;85.18
8101;BME280;4093;53.470;9.832;2023-09-12T05:22:15;101198.56;;;24.57;84.51
8101;BME280;4093;53.470;9.832;2023-09-12T05:24:43;101182.56;;;24.33;85.35
8101;BME280;4093;53.470;9.832;2023-09-12T05:27:12;101152.69;;;22.83;93.97
8101;BME280;4093;53.470;9.832;2023-09-12T05:29:40;101197.59;;;23.39;92.71
8101;BME280;4093;53.470;9.832;2023-09-12T05:32:07;101180.66;;;23.00;93.31
8101;BME280;4093;53.470;9.832;2023-09-12T05:34:37;101210.31;;;23.32;93.94
8101;BME280;4093;53.470;9.832;2023-09-12T05:37:04;101235.09;;;23.85;91.38
8101;BME280;4093;53.470;9.832;2023-09-12T05:39:33;101255.78;;;24.18;89.36
8101;BME280;4093;53.470;9.832;2023-09-12T05:42:00;101271.03;;;24.28;88.57
8101;BME280;4093;53.470;9.832;2023-09-12T05:44:28;101208.00;;;23.13;92.23
8101;BME280;4093;53.470;9.832;2023-09-12T05:46:56;101247.03;;;23.49;92.52
8101;BME280;4093;53.470;9.832;2023-09-12T05:49:23;101261.56;;;23.98;89.82
8101;BME280;4093;53.470;9.832;2023-09-12T05:51:52;101238.78;;;23.83;88.40
8101;BME280;4093;53.470;9.832;2023-09-12T05:54:20;101248.41;;;23.84;88.96
8101;BME280;4093;53.470;9.832;2023-09-12T05:56:48;101244.09;;;24.22;86.42
8101;BME280;4093;53.470;9.832;2023-09-12T05:59:15;101238.50;;;24.40;86.74
8101;BME280;4093;53.470;9.832;2023-09-12T06:01:43;101233.69;;;24.59;85.90
8101;BME280;4093;53.470;9.832;2023-09-12T06:04:11;101209.38;;;24.54;86.32
8101;BME280;4093;53.470;9.832;2023-09-12T06:06:39;101210.84;;;24.45;87.16
8101;BME280;4093;53.470;9.832;2023-09-12T06:09:09;101227.66;;;24.70;86.17
8101;BME280;4093;53.470;9.832;2023-09-12T06:11:36;101222.25;;;24.84;85.46
8101;BME280;4093;53.470;9.832;2023-09-12T06:14:04;101220.66;;;24.95;84.18
8101;BME280;4093;53.470;9.832;2023-09-12T06:16:32;101211.34;;;24.89;84.39
8101;BME280;4093;53.470;9.832;2023-09-12T06:18:59;101211.03;;;24.81;84.59
8101;BME280;4093;53.470;9.832;2023-09-12T06:21:27;101186.19;;;24.70;84.88
8101;BME280;4093;53.470;9.832;2023-09-12T06:24:10;101225.19;;;25.05;84.23
8101;BME280;4093;53.470;9.832;2023-09-12T06:26:38;101227.00;;;25.18;83.72
8101;BME280;4093;53.470;9.832;2023-09-12T06:29:06;101218.22;;;25.17;82.29
8101;BME280;4093;53.470;9.832;2023-09-12T06:31:34;101207.41;;;24.82;84.47
8101;BME280;4093;53.470;9.832;2023-09-12T06:34:02;101202.56;;;24.76;85.02
8101;BME280;4093;53.470;9.832;2023-09-12T06:36:30;101225.84;;;24.96;84.02
8101;BME280;4093;53.470;9.832;2023-09-12T06:38:58;101223.41;;;24.93;84.17
8101;BME280;4093;53.470;9.832;2023-09-12T06:41:27;101226.47;;;24.87;84.30
8101;BME280;4093;53.470;9.832;2023-09-12T06:43:55;101237.16;;;24.60;86.73
8101;BME280;4093;53.470;9.832;2023-09-12T06:46:27;101238.75;;;24.62;86.27
8101;BME280;4093;53.470;9.832;2023-09-12T06:48:54;101247.00;;;24.96;84.26
8101;BME280;4093;53.470;9.832;2023-09-12T06:51:24;101237.91;;;24.87;84.43
8101;BME280;4093;53.470;9.832;2023-09-12T06:53:55;101236.84;;;24.90;84.83
8101;BME280;4093;53.470;9.832;2023-09-12T06:56:22;101231.66;;;24.76;86.04
8101;BME280;4093;53.470;9.832;2023-09-12T06:58:51;101242.69;;;24.95;84.86
8101;BME280;4093;53.470;9.832;2023-09-12T07:01:19;101222.84;;;24.37;88.38
8101;BME280;4093;53.470;9.832;2023-09-12T07:03:48;101237.63;;;24.66;87.01
8101;BME280;4093;53.470;9.832;2023-09-12T07:06:20;101224.09;;;24.31;88.34
8101;BME280;4093;53.470;9.832;2023-09-12T07:08:48;101243.31;;;24.60;87.36
8101;BME280;4093;53.470;9.832;2023-09-12T07:11:15;101249.13;;;24.78;86.53
8101;BME280;4093;53.470;9.832;2023-09-12T07:13:43;101245.22;;;24.58;87.59
8101;BME280;4093;53.470;9.832;2023-09-12T07:16:12;101252.88;;;24.23;89.60
8101;BME280;4093;53.470;9.832;2023-09-12T07:18:40;101249.47;;;24.61;88.10
8101;BME280;4093;53.470;9.832;2023-09-12T07:21:08;101241.75;;;24.31;88.52
8101;BME280;4093;53.470;9.832;2023-09-12T07:23:37;101250.03;;;24.39;88.81
8101;BME280;4093;53.470;9.832;2023-09-12T07:26:05;101249.91;;;24.40;89.36
8101;BME280;4093;53.470;9.832;2023-09-12T07:28:33;101252.19;;;24.72;88.07
8101;BME280;4093;53.470;9.832;2023-09-12T07:31:00;101239.72;;;24.74;88.24
8101;BME280;4093;53.470;9.832;2023-09-12T07:33:30;101246.38;;;24.80;87.05
8101;BME280;4093;53.470;9.832;2023-09-12T07:35:58;101228.19;;;24.62;88.41
8101;BME280;4093;53.470;9.832;2023-09-12T07:38:26;101230.81;;;24.88;86.01
8101;BME280;4093;53.470;9.832;2023-09-12T07:40:54;101238.56;;;25.17;86.44
8101;BME280;4093;53.470;9.832;2023-09-12T07:43:21;101231.69;;;25.38;85.50
8101;BME280;4093;53.470;9.832;2023-09-12T07:45:49;101226.00;;;25.31;85.92
8101;BME280;4093;53.470;9.832;2023-09-12T07:48:17;101232.84;;;25.47;85.10
8101;BME280;4093;53.470;9.832;2023-09-12T07:50:46;101224.22;;;25.19;86.79
8101;BME280;4093;53.470;9.832;2023-09-12T07:53:14;101225.44;;;24.89;88.18
8101;BME280;4093;53.470;9.832;2023-09-12T07:55:41;101216.16;;;24.31;90.95
8101;BME280;4093;53.470;9.832;2023-09-12T07:58:13;101226.59;;;24.07;92.80
8101;BME280;4093;53.470;9.832;2023-09-12T08:00:41;101247.84;;;24.06;93.76
8101;BME280;4093;53.470;9.832;2023-09-12T08:03:09;101269.84;;;24.46;92.52
8101;BME280;4093;53.470;9.832;2023-09-12T08:05:37;101281.63;;;24.93;90.20
8101;BME280;4093;53.470;9.832;2023-09-12T08:08:06;101276.09;;;25.09;89.46
8101;BME280;4093;53.470;9.832;2023-09-12T08:10:34;101283.44;;;26.04;85.70
8101;BME280;4093;53.470;9.832;2023-09-12T08:13:02;101279.81;;;26.05;86.42
8101;BME280;4093;53.470;9.832;2023-09-12T08:15:30;101272.44;;;25.61;86.22
8101;BME280;4093;53.470;9.832;2023-09-12T08:17:57;101268.03;;;25.73;86.63
8101;BME280;4093;53.470;9.832;2023-09-12T08:20:25;101264.88;;;26.04;85.32
8101;BME280;4093;53.470;9.832;2023-09-12T08:22:53;101246.09;;;26.07;83.51
8101;BME280;4093;53.470;9.832;2023-09-12T08:25:22;101275.72;;;27.06;81.05
8101;BME280;4093;53.470;9.832;2023-09-12T08:27:51;101256.81;;;27.76;79.26
8101;BME280;4093;53.470;9.832;2023-09-12T08:30:18;101241.22;;;27.17;79.21
8101;BME280;4093;53.470;9.832;2023-09-12T08:32:46;101244.94;;;26.58;82.22
8101;BME280;4093;53.470;9.832;2023-09-12T08:35:14;101247.00;;;26.88;81.22
8101;BME280;4093;53.470;9.832;2023-09-12T08:37:42;101265.03;;;27.73;79.81
8101;BME280;4093;53.470;9.832;2023-09-12T08:40:11;101258.59;;;28.82;75.25
8101;BME280;4093;53.470;9.832;2023-09-12T08:42:41;101259.75;;;29.60;72.12
8101;BME280;4093;53.470;9.832;2023-09-12T08:45:12;101218.34;;;28.45;74.52
8101;BME280;4093;53.470;9.832;2023-09-12T08:47:42;101234.06;;;26.72;80.02
8101;BME280;4093;53.470;9.832;2023-09-12T08:50:12;101244.13;;;26.34;82.05
8101;BME280;4093;53.470;9.832;2023-09-12T08:52:41;101244.34;;;26.88;79.81
8101;BME280;4093;53.470;9.832;2023-09-12T08:55:29;101234.91;;;26.62;79.85
8101;BME280;4093;53.470;9.832;2023-09-12T08:57:59;101238.56;;;26.83;79.75
8101;BME280;4093;53.470;9.832;2023-09-12T09:00:28;101231.28;;;26.63;80.74
8101;BME280;4093;53.470;9.832;2023-09-12T09:02:56;101237.34;;;27.32;78.69
8101;BME280;4093;53.470;9.832;2023-09-12T09:05:24;101247.09;;;27.54;77.85
8101;BME280;4093;53.470;9.832;2023-09-12T09:07:52;101227.63;;;27.54;77.38
8101;BME280;4093;53.470;9.832;2023-09-12T09:10:22;101240.59;;;27.90;75.30
8101;BME280;4093;53.470;9.832;2023-09-12T09:13:12;101220.81;;;26.84;78.83
8101;BME280;4093;53.470;9.832;2023-09-12T09:15:40;101217.53;;;25.63;83.89
8101;BME280;4093;53.470;9.832;2023-09-12T09:18:09;101236.75;;;25.17;85.43
8101;BME280;4093;53.470;9.832;2023-09-12T09:20:39;101262.16;;;26.28;81.49
8101;BME280;4093;53.470;9.832;2023-09-12T09:23:09;101248.31;;;25.77;83.23
8101;BME280;4093;53.470;9.832;2023-09-12T09:25:40;101251.22;;;26.68;81.39
8101;BME280;4093;53.470;9.832;2023-09-12T09:28:17;101268.97;;;26.90;81.13
8101;BME280;4093;53.470;9.832;2023-09-12T09:30:46;101259.81;;;27.39;79.15
8101;BME280;4093;53.470;9.832;2023-09-12T09:33:15;101248.38;;;27.71;77.80
8101;BME280;4093;53.470;9.832;2023-09-12T09:35:45;101236.78;;;27.83;76.51
8101;BME280;4093;53.470;9.832;2023-09-12T09:38:13;101244.72;;;28.16;73.89
8101;BME280;4093;53.470;9.832;2023-09-12T09:40:43;101236.78;;;28.04;74.55
8101;BME280;4093;53.470;9.832;2023-09-12T09:43:11;101244.09;;;27.91;76.01
8101;BME280;4093;53.470;9.832;2023-09-12T09:45:45;101241.69;;;26.99;78.54
8101;BME280;4093;53.470;9.832;2023-09-12T09:48:18;101266.94;;;27.16;77.87
8101;BME280;4093;53.470;9.832;2023-09-12T09:50:46;101264.63;;;27.12;78.54
8101;BME280;4093;53.470;9.832;2023-09-12T09:53:14;101266.38;;;26.55;81.12
8101;BME280;4093;53.470;9.832;2023-09-12T09:55:41;101275.19;;;26.67;80.26
8101;BME280;4093;53.470;9.832;2023-09-12T09:58:14;101265.03;;;25.53;83.55
8101;BME280;4093;53.470;9.832;2023-09-12T10:00:46;101281.81;;;25.78;83.54
8101;BME280;4093;53.470;9.832;2023-09-12T10:03:18;101278.31;;;26.25;81.66
8101;BME280;4093;53.470;9.832;2023-09-12T10:05:50;101287.34;;;26.23;81.31
8101;BME280;4093;53.470;9.832;2023-09-12T10:08:19;101284.41;;;25.67;83.95
8101;BME280;4093;53.470;9.832;2023-09-12T10:10:50;101306.94;;;26.33;81.88
8101;BME280;4093;53.470;9.832;2023-09-12T10:13:18;101304.78;;;26.73;80.04
8101;BME280;4093;53.470;9.832;2023-09-12T10:15:49;101296.09;;;26.71;80.66
8101;BME280;4093;53.470;9.832;2023-09-12T10:18:19;101280.09;;;26.14;81.80
8101;BME280;4093;53.470;9.832;2023-09-12T10:20:55;101288.81;;;25.66;84.48
8101;BME280;4093;53.470;9.832;2023-09-12T10:23:27;101282.69;;;25.16;85.71
8101;BME280;4093;53.470;9.832;2023-09-12T10:25:58;101297.19;;;25.73;83.38
8101;BME280;4093;53.470;9.832;2023-09-12T10:28:26;101294.38;;;25.50;84.27
8101;BME280;4093;53.470;9.832;2023-09-12T10:30:57;101297.66;;;25.67;83.77
8101;BME280;4093;53.470;9.832;2023-09-12T10:33:27;101300.84;;;25.59;83.82
8101;BME280;4093;53.470;9.832;2023-09-12T10:35:59;101292.25;;;25.55;83.54
8101;BME280;4093;53.470;9.832;2023-09-12T10:38:28;101289.00;;;25.89;82.59
8101;BME280;4093;53.470;9.832;2023-09-12T10:40:59;101296.94;;;26.37;81.04
8101;BME280;4093;53.470;9.832;2023-09-12T10:43:28;101286.41;;;26.24;81.69
8101;BME280;4093;53.470;9.832;2023-09-12T10:45:57;101263.22;;;26.15;81.42
8101;BME280;4093;53.470;9.832;2023-09-12T10:48:26;101294.59;;;26.56;80.52
8101;BME280;4093;53.470;9.832;2023-09-12T10:50:56;101293.31;;;26.73;79.22
8101;BME280;4093;53.470;9.832;2023-09-12T10:53:26;101260.97;;;25.97;81.54
8101;BME280;4093;53.470;9.832;2023-09-12T10:55:59;101279.75;;;26.18;80.45
8101;BME280;4093;53.470;9.832;2023-09-12T10:58:27;101271.78;;;26.18;80.85
8101;BME280;4093;53.470;9.832;2023-09-12T11:01:23;101278.44;;;26.24;80.85
8101;BME280;4093;53.470;9.832;2023-09-12T11:03:52;101269.41;;;26.26;80.49
8101;BME280;4093;53.470;9.832;2023-09-12T11:06:21;101271.66;;;25.72;82.64
8101;BME280;4093;53.470;9.832;2023-09-12T11:09:17;101236.88;;;25.76;82.21
8101;BME280;4093;53.470;9.832;2023-09-12T11:11:46;101248.50;;;25.13;84.63
8101;BME280;4093;53.470;9.832;2023-09-12T11:14:15;101258.66;;;24.93;86.05
8101;BME280;4093;53.470;9.832;2023-09-12T11:17:20;101278.34;;;25.28;84.76
8101;BME280;4093;53.470;9.832;2023-09-12T11:19:50;101284.34;;;24.53;88.86
8101;BME280;4093;53.470;9.832;2023-09-12T11:22:24;101283.41;;;24.27;89.20
8101;BME280;4093;53.470;9.832;2023-09-12T11:24:52;101294.31;;;24.22;89.79
8101;BME280;4093;53.470;9.832;2023-09-12T11:27:23;101292.34;;;24.12;90.12
8101;BME280;4093;53.470;9.832;2023-09-12T11:29:51;101276.00;;;23.92;90.18
8101;BME280;4093;53.470;9.832;2023-09-12T11:32:32;101284.50;;;23.97;90.55
8101;BME280;4093;53.470;9.832;2023-09-12T11:35:05;101283.53;;;23.98;89.87
8101;BME280;4093;53.470;9.832;2023-09-12T11:37:33;101291.59;;;24.37;88.75
8101;BME280;4093;53.470;9.832;2023-09-12T11:40:15;101299.44;;;24.38;89.01
8101;BME280;4093;53.470;9.832;2023-09-12T11:42:44;101298.88;;;24.86;86.60
8101;BME280;4093;53.470;9.832;2023-09-12T11:45:13;101311.06;;;25.27;85.44
8101;BME280;4093;53.470;9.832;2023-09-12T11:47:43;101302.31;;;25.13;85.16
8101;BME280;4093;53.470;9.832;2023-09-12T11:50:25;101299.94;;;25.09;85.63
8101;BME280;4093;53.470;9.832;2023-09-12T11:52:59;101291.16;;;24.83;86.71
8101;BME280;4093;53.470;9.832;2023-09-12T11:55:27;101304.72;;;25.29;85.09
8101;BME280;4093;53.470;9.832;2023-09-12T11:57:57;101296.72;;;25.55;84.25
8101;BME280;4093;53.470;9.832;2023-09-12T12:00:25;101296.72;;;25.79;83.50
8101;BME280;4093;53.470;9.832;2023-09-12T12:02:55;101279.59;;;25.35;85.02
8101;BME280;4093;53.470;9.832;2023-09-12T12:05:23;101281.28;;;25.49;84.38
8101;BME280;4093;53.470;9.832;2023-09-12T12:07:51;101283.94;;;25.73;83.36
8101;BME280;4093;53.470;9.832;2023-09-12T12:10:28;101278.84;;;25.70;83.32
8101;BME280;4093;53.470;9.832;2023-09-12T12:12:56;101263.31;;;25.15;85.34
8101;BME280;4093;53.470;9.832;2023-09-12T12:15:25;101270.28;;;25.42;84.61
8101;BME280;4093;53.470;9.832;2023-09-12T12:17:56;101254.28;;;25.68;83.88
8101;BME280;4093;53.470;9.832;2023-09-12T12:20:24;101243.38;;;25.35;84.99
8101;BME280;4093;53.470;9.832;2023-09-12T12:22:51;101251.91;;;25.52;82.64
8101;BME280;4093;53.470;9.832;2023-09-12T12:25:19;101246.28;;;25.80;82.96
8101;BME280;4093;53.470;9.832;2023-09-12T12:27:49;101237.94;;;25.74;82.73
8101;BME280;4093;53.470;9.832;2023-09-12T12:30:17;101220.69;;;25.68;82.45
8101;BME280;4093;53.470;9.832;2023-09-12T12:32:46;101233.81;;;25.82;83.38
8101;BME280;4093;53.470;9.832;2023-09-12T12:35:21;101231.88;;;26.08;81.17
8101;BME280;4093;53.470;9.832;2023-09-12T12:38:11;101198.31;;;25.48;82.43
8101;BME280;4093;53.470;9.832;2023-09-12T12:40:40;101205.31;;;25.49;83.08
8101;BME280;4093;53.470;9.832;2023-09-12T12:43:18;101219.06;;;26.02;81.72
8101;BME280;4093;53.470;9.832;2023-09-12T12:45:53;101217.38;;;26.01;80.36
8101;BME280;4093;53.470;9.832;2023-09-12T12:48:31;101227.09;;;26.25;80.71
8101;BME280;4093;53.470;9.832;2023-09-12T12:51:12;101230.63;;;26.01;82.48
8101;BME280;4093;53.470;9.832;2023-09-12T12:53:44;101223.56;;;25.65;82.82
8101;BME280;4093;53.470;9.832;2023-09-12T12:56:19;101240.59;;;25.74;83.05
8101;BME280;4093;53.470;9.832;2023-09-12T12:58:49;101235.16;;;25.75;82.29
8101;BME280;4093;53.470;9.832;2023-09-12T13:01:17;101225.00;;;25.82;82.62
8101;BME280;4093;53.470;9.832;2023-09-12T13:03:45;101215.31;;;25.57;83.40
8101;BME280;4093;53.470;9.832;2023-09-12T13:06:15;101220.75;;;25.79;82.53
8101;BME280;4093;53.470;9.832;2023-09-12T13:08:44;101201.97;;;25.58;82.62
8101;BME280;4093;53.470;9.832;2023-09-12T13:11:13;101210.06;;;25.44;84.47
8101;BME280;4093;53.470;9.832;2023-09-12T13:13:44;101213.47;;;25.70;83.41
8101;BME280;4093;53.470;9.832;2023-09-12T13:16:13;101165.78;;;25.70;81.46
8101;BME280;4093;53.470;9.832;2023-09-12T13:18:41;101214.31;;;25.71;82.50
8101;BME280;4093;53.470;9.832;2023-09-12T13:21:09;101234.31;;;26.23;81.41
8101;BME280;4093;53.470;9.832;2023-09-12T13:23:39;101219.09;;;26.49;78.88
8101;BME280;4093;53.470;9.832;2023-09-12T13:26:08;101199.66;;;25.54;82.00